createdAt,value
2023-04-11T06:30:32.698Z,1.40
2023-04-11T06:33:34.160Z,1.30
2023-04-11T06:36:37.178Z,1.20
2023-04-11T06:39:38.894Z,1.40
2023-04-11T06:42:41.876Z,1.33
2023-04-11T06:45:46.746Z,1.40
2023-04-11T06:48:48.277Z,1.50
2023-04-11T06:51:54.106Z,1.20
2023-04-11T06:54:55.785Z,1.15
2023-04-11T06:57:57.327Z,1.20
2023-04-11T07:01:01.571Z,1.13
2023-04-11T07:04:04.264Z,1.45
2023-04-11T07:07:05.926Z,1.42
2023-04-11T07:10:08.293Z,1.58
2023-04-11T07:13:09.861Z,0.90
2023-04-11T07:16:11.449Z,1.20
2023-04-11T07:19:12.955Z,1.15
2023-04-11T07:22:14.518Z,0.90
2023-04-11T07:25:16.067Z,0.73
2023-04-11T07:28:17.548Z,0.80
2023-04-11T07:31:21.450Z,1.00
2023-04-11T07:34:23.174Z,1.10
2023-04-11T07:37:24.737Z,1.63
2023-04-11T07:40:26.424Z,1.10
2023-04-11T07:43:28.991Z,1.40
2023-04-11T07:46:30.838Z,1.48
2023-04-11T07:49:32.343Z,1.40
2023-04-11T07:52:33.868Z,1.63
2023-04-11T07:55:35.316Z,1.52
2023-04-11T07:58:36.874Z,1.17
2023-04-11T08:01:40.493Z,1.20
2023-04-11T08:04:42.368Z,1.10
2023-04-11T08:07:43.928Z,1.20
2023-04-11T08:10:45.577Z,1.20
2023-04-11T08:13:47.108Z,1.30
2023-04-11T08:16:49.852Z,0.95
2023-04-11T08:19:53.063Z,1.33
2023-04-11T08:22:54.541Z,0.90
2023-04-11T08:25:56.478Z,1.00
2023-04-11T08:28:57.981Z,1.00
2023-04-11T08:31:59.497Z,0.90
2023-04-11T08:35:01.508Z,1.00
2023-04-11T08:38:03.100Z,1.10
2023-04-11T08:41:04.871Z,0.98
2023-04-11T08:44:11.683Z,1.00
2023-04-11T08:47:15.883Z,1.13
2023-04-11T08:50:17.448Z,1.00
2023-04-11T08:53:22.404Z,1.13
2023-04-11T08:56:23.860Z,0.98
2023-04-11T08:59:25.302Z,1.48
2023-04-11T09:02:27.625Z,1.10
2023-04-11T09:05:39.142Z,0.85
2023-04-11T09:08:40.946Z,0.90
2023-04-11T09:11:53.118Z,1.08
2023-04-11T09:14:54.623Z,1.13
2023-04-11T09:17:59.687Z,0.80
2023-04-11T09:21:10.301Z,1.00
2023-04-11T09:24:15.649Z,0.88
2023-04-11T09:27:19.628Z,0.90
2023-04-11T09:30:26.105Z,0.70
2023-04-11T09:33:31.570Z,0.70
2023-04-11T09:36:33.206Z,1.10
2023-04-11T09:39:35.122Z,0.90
2023-04-11T09:42:36.660Z,0.80
2023-04-11T09:45:51.805Z,1.08
2023-04-11T09:48:56.409Z,1.00
2023-04-11T09:52:00.164Z,1.10
2023-04-11T09:55:04.660Z,1.00
2023-04-11T09:58:09.970Z,0.90
2023-04-11T10:01:11.476Z,0.93
2023-04-11T10:04:13.713Z,1.00
2023-04-11T10:07:17.033Z,0.93
2023-04-11T10:10:20.925Z,0.90
2023-04-11T10:13:45.364Z,0.90
2023-04-11T10:17:24.363Z,0.70
2023-04-11T10:20:32.097Z,0.88
2023-04-11T10:24:20.132Z,0.70
2023-04-11T10:27:46.626Z,0.70
2023-04-11T10:31:13.205Z,0.77
2023-04-11T10:34:15.202Z,0.90
2023-04-11T10:37:18.254Z,0.75
2023-04-11T10:40:20.713Z,0.75
2023-04-11T10:43:22.359Z,0.80
2023-04-11T10:46:25.718Z,0.80
2023-04-11T10:49:38.285Z,0.40
2023-04-11T10:52:39.824Z,0.73
2023-04-11T10:55:49.546Z,0.63
2023-04-11T10:58:53.292Z,1.13
2023-04-11T11:01:55.702Z,0.75
2023-04-11T11:04:57.451Z,0.50
2023-04-11T11:07:59.030Z,0.70
2023-04-11T11:11:01.660Z,0.90
2023-04-11T11:14:03.122Z,1.10
2023-04-11T11:17:05.013Z,0.68
2023-04-11T11:20:10.046Z,0.70
2023-04-11T11:23:11.645Z,0.90
2023-04-11T11:26:13.270Z,0.98
2023-04-11T11:29:14.732Z,0.75
2023-04-11T11:32:28.672Z,0.90
2023-04-11T11:35:30.886Z,0.70
2023-04-11T11:38:32.500Z,1.00
2023-04-11T11:41:35.319Z,1.33
2023-04-11T11:44:37.145Z,1.02
2023-04-11T11:47:46.997Z,1.10
2023-04-11T11:50:56.355Z,1.10
2023-04-11T11:54:03.796Z,1.05
2023-04-11T11:57:05.376Z,1.25
2023-04-11T12:00:10.381Z,1.00
2023-04-11T12:03:11.938Z,0.77
2023-04-11T12:06:13.841Z,0.80
2023-04-11T12:09:15.759Z,0.70
2023-04-11T12:12:17.337Z,1.00
2023-04-11T12:15:20.950Z,1.33
2023-04-11T12:18:23.995Z,0.90
2023-04-11T12:21:25.773Z,0.90
2023-04-11T12:24:27.231Z,0.77
2023-04-11T12:27:28.690Z,0.60
2023-04-11T12:30:30.385Z,1.15
2023-04-11T12:33:32.153Z,1.00
2023-04-11T12:36:36.629Z,1.05
2023-04-11T12:39:38.262Z,1.30
2023-04-11T12:45:45.017Z,1.02
2023-04-11T12:48:46.466Z,0.95
2023-04-11T12:51:47.952Z,0.90
2023-04-11T12:54:49.427Z,1.00
2023-04-11T12:57:51.095Z,1.00
2023-04-11T13:00:52.560Z,0.95
2023-04-11T13:03:54.170Z,0.70
2023-04-11T13:07:00.741Z,0.77
2023-04-11T13:10:07.729Z,0.90
2023-04-11T13:13:18.141Z,0.90
2023-04-11T13:16:20.487Z,0.80
2023-04-11T13:19:22.816Z,1.05
2023-04-11T13:22:24.341Z,0.70
2023-04-11T13:25:25.915Z,0.60
2023-04-11T13:28:27.940Z,0.68
2023-04-11T13:31:29.428Z,1.00
2023-04-11T13:34:30.931Z,0.70
2023-04-11T13:37:32.599Z,0.80
2023-04-11T13:40:35.345Z,0.95
2023-04-11T13:43:36.880Z,1.08
2023-04-11T13:46:38.382Z,0.95
2023-04-11T13:49:39.856Z,0.80
2023-04-11T13:52:41.339Z,0.80
2023-04-11T13:55:44.923Z,1.00
2023-04-11T13:58:46.441Z,0.80
2023-04-11T14:01:48.003Z,0.68
2023-04-11T14:04:49.686Z,0.88
2023-04-11T14:07:51.855Z,0.80
2023-04-11T14:10:53.612Z,0.75
2023-04-11T14:13:55.318Z,0.70
2023-04-11T14:16:57.161Z,0.68
2023-04-11T14:19:58.618Z,0.73
2023-04-11T14:23:01.007Z,0.80
2023-04-11T14:26:02.744Z,0.90
2023-04-11T14:29:04.620Z,0.75
2023-04-11T14:32:06.845Z,0.70
2023-04-11T14:35:09.569Z,0.88
2023-04-11T14:38:11.289Z,0.65
2023-04-11T14:41:12.763Z,0.73
2023-04-11T14:44:16.385Z,0.65
2023-04-11T14:47:17.825Z,0.70
2023-04-11T14:50:19.360Z,0.70
2023-04-11T14:53:21.872Z,0.80
2023-04-11T14:56:24.095Z,0.57
2023-04-11T14:59:26.013Z,0.70
2023-04-11T15:02:29.198Z,0.60
2023-04-11T15:05:32.112Z,0.68
2023-04-11T15:08:33.576Z,0.70
2023-04-11T15:11:35.170Z,0.65
2023-04-11T15:14:36.605Z,0.77
2023-04-11T15:17:48.020Z,1.05
2023-04-11T15:20:50.097Z,1.20
2023-04-11T15:23:51.986Z,0.73
2023-04-11T15:26:53.573Z,0.70
2023-04-11T15:29:59.113Z,0.90
2023-04-11T15:33:00.649Z,0.88
2023-04-11T15:36:02.263Z,0.63
2023-04-11T15:39:04.997Z,0.93
2023-04-11T15:42:06.962Z,0.70
2023-04-11T15:45:09.121Z,0.77
2023-04-11T15:48:14.146Z,0.75
2023-04-11T15:51:17.155Z,0.50
2023-04-11T15:54:18.626Z,0.70
2023-04-11T15:57:20.295Z,0.70
2023-04-11T16:00:25.042Z,0.77
2023-04-11T16:03:31.628Z,0.90
2023-04-11T16:06:33.364Z,0.60
2023-04-11T16:09:35.546Z,0.60
2023-04-11T16:12:37.243Z,0.70
2023-04-11T16:15:38.682Z,0.50
2023-04-11T16:18:40.464Z,0.98
2023-04-11T16:21:42.934Z,0.60
2023-04-11T16:24:44.795Z,0.60
2023-04-11T16:27:47.663Z,0.47
2023-04-11T16:30:49.179Z,0.52
2023-04-11T16:33:52.714Z,0.60
2023-04-11T16:36:54.312Z,0.45
2023-04-11T16:39:56.958Z,0.80
2023-04-11T16:42:58.430Z,0.50
2023-04-11T16:45:59.918Z,0.55
2023-04-11T16:49:01.445Z,0.60
2023-04-11T16:52:03.681Z,0.60
2023-04-11T16:55:05.791Z,0.60
2023-04-11T16:58:08.397Z,1.13
2023-04-11T17:01:10.414Z,1.88
2023-04-11T17:04:12.913Z,1.25
2023-04-11T17:07:14.420Z,1.10
2023-04-11T17:10:16.068Z,1.13
2023-04-11T17:13:18.963Z,0.70
2023-04-11T17:16:20.489Z,0.90
2023-04-11T17:19:23.714Z,0.70
2023-04-11T17:22:25.949Z,0.80
2023-04-11T17:25:29.883Z,0.88
2023-04-11T17:28:31.583Z,0.60
2023-04-11T17:31:33.076Z,0.60
2023-04-11T17:34:34.509Z,0.60
2023-04-11T17:37:36.098Z,0.57
2023-04-11T17:40:39.340Z,0.80
2023-04-11T17:43:40.968Z,0.70
2023-04-11T17:46:42.409Z,0.60
2023-04-11T17:49:45.403Z,0.50
2023-04-11T17:52:49.663Z,0.60
2023-04-11T17:55:51.961Z,0.57
2023-04-11T17:58:53.561Z,0.60
2023-04-11T18:01:55.923Z,0.47
2023-04-11T18:04:57.729Z,0.60
2023-04-11T18:08:00.001Z,0.73
2023-04-11T18:11:01.609Z,0.73
2023-04-11T18:14:03.233Z,0.80
2023-04-11T18:17:04.737Z,0.88
2023-04-11T18:20:10.718Z,1.00
2023-04-11T18:23:12.268Z,0.60
2023-04-11T18:26:13.745Z,0.65
2023-04-11T18:29:15.416Z,0.75
2023-04-11T18:32:22.696Z,0.60
2023-04-11T18:35:25.819Z,0.70
2023-04-11T18:38:27.361Z,0.60
2023-04-11T18:41:28.793Z,0.80
2023-04-11T18:44:30.827Z,0.80
2023-04-11T18:47:32.834Z,0.70
2023-04-11T18:50:38.824Z,0.60
2023-04-11T18:53:41.639Z,0.68
2023-04-11T18:56:45.420Z,1.33
2023-04-11T18:59:50.502Z,1.00
2023-04-11T19:02:52.654Z,0.93
2023-04-11T19:05:54.296Z,0.57
2023-04-11T19:08:56.474Z,0.70
2023-04-11T19:11:57.901Z,0.50
2023-04-11T19:15:02.325Z,0.70
2023-04-11T19:18:03.814Z,0.88
2023-04-11T19:21:05.985Z,0.50
2023-04-11T19:24:08.157Z,0.65
2023-04-11T19:27:09.941Z,0.82
2023-04-11T19:30:13.360Z,0.50
2023-04-11T19:33:15.006Z,1.05
2023-04-11T19:36:16.675Z,0.70
2023-04-11T19:39:18.248Z,0.82
2023-04-11T19:42:19.743Z,0.70
2023-04-11T19:45:22.039Z,0.80
2023-04-11T19:48:23.559Z,0.82
2023-04-11T19:51:25.009Z,0.90
2023-04-11T19:54:26.500Z,1.00
2023-04-11T19:57:28.899Z,0.80
2023-04-11T20:00:35.319Z,1.00
2023-04-11T20:03:36.922Z,0.60
2023-04-11T20:06:38.447Z,0.60
2023-04-11T20:09:39.975Z,0.95
2023-04-11T20:12:41.589Z,0.90
2023-04-11T20:15:43.406Z,0.90
2023-04-11T20:18:44.848Z,0.80
2023-04-11T20:21:46.562Z,0.80
2023-04-11T20:24:48.594Z,0.60
2023-04-11T20:27:50.181Z,0.60
2023-04-11T20:30:51.939Z,0.70
2023-04-11T20:33:53.516Z,0.50
2023-04-11T20:36:55.849Z,1.02
2023-04-11T20:39:58.465Z,0.60
2023-04-11T20:43:00.883Z,0.70
2023-04-11T20:46:03.905Z,0.77
2023-04-11T20:49:05.494Z,0.70
2023-04-11T20:52:06.952Z,0.80
2023-04-11T20:55:10.079Z,0.73
2023-04-11T20:58:11.957Z,0.60
2023-04-11T21:01:13.518Z,0.75
2023-04-11T21:04:17.473Z,0.70
2023-04-11T21:07:19.813Z,0.60
2023-04-11T21:10:21.280Z,0.63
2023-04-11T21:13:22.702Z,0.65
2023-04-11T21:16:24.450Z,0.60
2023-04-11T21:19:26.083Z,0.63
2023-04-11T21:22:27.601Z,0.40
2023-04-11T21:25:29.061Z,0.60
2023-04-11T21:28:30.838Z,0.50
2023-04-11T21:31:32.367Z,0.50
2023-04-11T21:34:34.010Z,0.52
2023-04-11T21:37:35.853Z,0.40
2023-04-11T21:40:37.322Z,0.70
2023-04-11T21:43:38.945Z,0.65
2023-04-11T21:46:40.504Z,0.50
2023-04-11T21:49:42.089Z,0.35
2023-04-11T21:52:44.372Z,0.57
2023-04-11T21:55:46.651Z,0.60
2023-04-11T21:58:48.155Z,0.50
2023-04-11T22:01:49.698Z,0.55
2023-04-11T22:05:04.968Z,0.50
2023-04-11T22:08:10.645Z,0.50
2023-04-11T22:11:14.172Z,0.70
2023-04-11T22:14:15.974Z,0.95
2023-04-11T22:17:17.584Z,0.68
2023-04-11T22:20:19.894Z,0.75
2023-04-11T22:23:22.050Z,0.70
2023-04-11T22:26:35.112Z,0.70
2023-04-11T22:29:36.607Z,0.60
2023-04-11T22:32:38.152Z,0.60
2023-04-11T22:35:40.665Z,1.10
2023-04-11T22:38:43.442Z,0.70
2023-04-11T22:41:47.621Z,0.75
2023-04-11T22:44:49.062Z,0.68
2023-04-11T22:47:54.358Z,0.60
2023-04-11T22:50:58.915Z,0.80
2023-04-11T22:54:02.305Z,1.05
2023-04-11T22:57:05.441Z,0.70
2023-04-11T23:00:07.720Z,1.33
2023-04-11T23:03:10.132Z,0.82
2023-04-11T23:06:11.715Z,0.80
2023-04-11T23:09:14.943Z,0.88
2023-04-11T23:12:16.923Z,0.80
2023-04-11T23:15:19.276Z,0.90
2023-04-11T23:18:20.735Z,0.90
2023-04-11T23:21:22.211Z,0.85
2023-04-11T23:24:23.947Z,0.60
